Time;durP1;ratioP1;P1;durP2;ratioP2;P2;SDS_P1;SDS_P2;PMS_P1;PMS_P2;Temp;Humidity;BMP_temperature;BMP_pressure;BME280_temperature;BME280_humidity;BME280_pressure;Samples;Min_cycle;Max_cycle;Signal;HPM_P1;HPM_P2
2022/05/23 00:01:18;;;;;;;3.97;1.60;;;14.20;99.90;;;;;;4213011;28;20237;-79
2022/05/23 00:03:20;;;;;;;5.23;2.00;;;14.20;99.90;;;;;;4214244;28;20276;-78
2022/05/23 00:05:22;;;;;;;3.13;1.70;;;14.10;99.70;;;;;;4221366;28;20220;-79
2022/05/23 00:07:29;;;;;;;2.17;1.40;;;14.10;99.40;;;;;;4219061;28;20217;-80
2022/05/23 00:09:31;;;;;;;2.97;1.47;;;14.10;99.80;;;;;;4218019;28;20239;-79
2022/05/23 00:11:33;;;;;;;4.17;1.93;;;14.10;99.90;;;;;;4210631;28;20218;-80
2022/05/23 00:13:35;;;;;;;5.00;1.40;;;14.10;99.90;;;;;;4219415;28;20717;-79
2022/05/23 00:15:38;;;;;;;4.37;1.83;;;14.00;99.90;;;;;;4212937;28;20256;-79
2022/05/23 00:17:40;;;;;;;3.90;1.57;;;14.00;99.90;;;;;;4216095;28;20201;-79
2022/05/23 00:19:42;;;;;;;3.27;1.70;;;14.00;99.90;;;;;;4217689;28;20209;-79
2022/05/23 00:21:46;;;;;;;2.50;1.60;;;13.90;99.90;;;;;;4205810;28;20677;-79
2022/05/23 00:23:48;;;;;;;4.37;1.57;;;13.90;99.90;;;;;;4216252;28;20678;-79
2022/05/23 00:25:50;;;;;;;3.73;1.60;;;13.90;99.90;;;;;;4213525;28;20274;-79
2022/05/23 00:27:51;;;;;;;4.60;1.60;;;13.80;99.90;;;;;;4215315;28;20839;-79
2022/05/23 00:29:53;;;;;;;6.90;2.03;;;13.80;99.90;;;;;;4218021;28;20224;-78
2022/05/23 01:40:55;;;;;;;3.33;1.70;;;12.90;99.90;;;;;;4206265;28;20213;-79
2022/05/23 01:42:59;;;;;;;4.67;1.80;;;12.80;99.90;;;;;;4208422;28;20225;-79
2022/05/23 01:45:01;;;;;;;5.37;1.83;;;12.80;99.90;;;;;;4198960;28;20234;-79
2022/05/23 01:47:09;;;;;;;4.03;1.80;;;12.80;99.90;;;;;;4204714;28;20214;-79
2022/05/23 01:49:11;;;;;;;3.37;2.00;;;12.80;99.90;;;;;;4202215;28;20245;-79
2022/05/23 01:51:12;;;;;;;4.67;1.70;;;12.70;99.90;;;;;;4204931;28;20294;-80
2022/05/23 01:53:14;;;;;;;4.97;2.00;;;12.70;99.90;;;;;;4208671;28;20208;-79
2022/05/23 01:55:17;;;;;;;4.20;2.20;;;12.70;99.90;;;;;;4204872;28;20290;-79
2022/05/23 01:57:18;;;;;;;4.07;2.20;;;12.70;99.90;;;;;;4210270;28;20197;-80
2022/05/23 02:01:41;;;;;;;3.00;1.80;;;12.70;99.90;;;;;;4195357;28;20206;-79
2022/05/23 02:03:44;;;;;;;4.47;1.93;;;12.70;99.90;;;;;;4208959;28;20204;-79
2022/05/23 02:05:46;;;;;;;4.27;2.20;;;12.60;99.90;;;;;;4210137;28;20229;-79
2022/05/23 02:07:47;;;;;;;3.87;1.90;;;12.60;99.90;;;;;;4214298;28;20214;-80
2022/05/23 02:09:49;;;;;;;3.73;1.80;;;12.60;99.90;;;;;;4208417;28;20212;-79
2022/05/23 02:11:51;;;;;;;4.33;2.00;;;12.60;99.90;;;;;;4208182;28;20207;-79
2022/05/23 02:13:53;;;;;;;5.57;2.17;;;12.60;99.90;;;;;;4214713;28;20192;-79
2022/05/23 02:15:56;;;;;;;7.63;2.30;;;12.60;99.90;;;;;;4215205;28;20625;-79
2022/05/23 02:17:59;;;;;;;5.03;2.00;;;12.50;99.90;;;;;;4208760;28;20568;-79
2022/05/23 02:20:02;;;;;;;4.23;2.10;;;12.50;99.90;;;;;;4205910;28;20259;-79
2022/05/23 02:22:05;;;;;;;2.90;2.00;;;12.50;99.90;;;;;;4204206;28;20215;-78
2022/05/23 02:24:07;;;;;;;3.37;2.27;;;12.40;99.90;;;;;;4197499;28;20231;-79
2022/05/23 02:26:09;;;;;;;3.57;2.60;;;12.40;99.90;;;;;;4204892;28;20219;-80
2022/05/23 02:28:11;;;;;;;5.53;2.60;;;12.40;99.90;;;;;;4202288;28;20223;-78
2022/05/23 02:30:13;;;;;;;5.10;2.17;;;12.40;99.90;;;;;;4210347;28;20218;-79
2022/05/23 02:32:16;;;;;;;4.63;2.43;;;12.40;99.90;;;;;;4209879;28;20207;-79
2022/05/23 02:34:20;;;;;;;3.33;2.10;;;12.30;99.90;;;;;;4209318;28;20209;-78
2022/05/23 02:36:21;;;;;;;5.33;2.20;;;12.30;99.90;;;;;;4213238;28;20203;-80
2022/05/23 02:38:23;;;;;;;5.43;2.33;;;12.30;99.90;;;;;;4210318;28;20219;-79
2022/05/23 02:40:25;;;;;;;4.70;2.07;;;12.30;99.90;;;;;;4212163;28;20210;-79
2022/05/23 02:42:27;;;;;;;3.87;2.03;;;12.30;99.90;;;;;;4208279;28;20235;-79
2022/05/23 02:44:29;;;;;;;5.03;2.30;;;12.20;99.90;;;;;;4207511;28;20219;-79
2022/05/23 02:46:31;;;;;;;4.67;2.33;;;12.30;99.90;;;;;;4206548;28;20207;-80
2022/05/23 02:48:34;;;;;;;5.73;2.30;;;12.40;99.90;;;;;;4199930;28;20220;-79
2022/05/23 02:50:36;;;;;;;3.73;2.10;;;12.20;99.90;;;;;;4204966;28;20210;-78
2022/05/23 02:52:39;;;;;;;3.73;2.23;;;12.20;99.90;;;;;;4201809;28;20272;-79
2022/05/23 02:54:40;;;;;;;5.53;2.67;;;12.10;99.90;;;;;;4204108;28;20238;-79
2022/05/23 02:56:42;;;;;;;5.60;2.57;;;12.10;99.90;;;;;;4197725;28;20235;-79
2022/05/23 02:58:44;;;;;;;5.23;2.67;;;12.10;99.90;;;;;;4205291;28;20212;-79
2022/05/23 03:00:46;;;;;;;5.63;2.50;;;12.10;99.90;;;;;;4209027;28;20242;-79
2022/05/23 03:03:02;;;;;;;4.37;2.43;;;12.00;99.90;;;;;;4205720;28;20218;-79
2022/05/23 03:05:06;;;;;;;6.40;2.53;;;12.00;99.90;;;;;;4211534;28;20700;-79
2022/05/23 03:07:09;;;;;;;5.23;2.63;;;12.00;99.90;;;;;;4211126;28;20235;-78
2022/05/23 03:09:11;;;;;;;5.10;2.80;;;12.00;99.90;;;;;;4197726;28;20219;-78
2022/05/23 03:11:13;;;;;;;6.33;2.57;;;12.30;99.90;;;;;;4199344;28;20303;-79
2022/05/23 03:13:15;;;;;;;4.70;2.70;;;12.00;99.90;;;;;;4212969;28;20223;-79
2022/05/23 03:15:17;;;;;;;4.07;2.70;;;12.00;99.90;;;;;;4219411;28;20231;-79
2022/05/23 03:17:18;;;;;;;5.50;2.40;;;11.90;99.90;;;;;;4210391;28;20577;-79
2022/05/23 03:19:21;;;;;;;7.57;3.13;;;12.00;99.90;;;;;;4210529;28;20294;-79
2022/05/23 03:28:20;;;;;;;4.27;2.70;;;11.90;99.90;;;;;;4201986;28;20222;-79
2022/05/23 03:30:22;;;;;;;4.03;2.57;;;11.90;99.90;;;;;;4197154;28;20256;-79
2022/05/23 03:32:24;;;;;;;4.70;2.70;;;11.90;99.90;;;;;;4204579;28;20225;-79
2022/05/23 03:34:26;;;;;;;5.13;2.80;;;11.90;99.90;;;;;;4213479;28;20252;-79
2022/05/23 03:36:29;;;;;;;4.00;2.87;;;11.80;99.90;;;;;;4210657;28;20215;-79
2022/05/23 03:38:31;;;;;;;6.60;3.37;;;11.80;99.90;;;;;;4198040;28;20196;-80
2022/05/23 03:40:34;;;;;;;5.87;3.47;;;11.80;99.90;;;;;;4204411;28;20204;-79
2022/05/23 03:42:36;;;;;;;7.67;3.20;;;11.80;99.90;;;;;;4206034;28;20209;-79
2022/05/23 03:44:38;;;;;;;7.47;2.90;;;11.80;99.90;;;;;;4205223;28;20304;-78
2022/05/23 03:46:39;;;;;;;6.07;2.50;;;11.80;99.90;;;;;;4213364;28;20206;-79
2022/05/23 03:48:42;;;;;;;4.83;2.80;;;11.80;99.90;;;;;;4205331;28;20710;-79
2022/05/23 03:50:43;;;;;;;8.93;3.43;;;11.80;99.90;;;;;;4202552;28;20207;-79
2022/05/23 03:52:47;;;;;;;7.83;2.97;;;11.80;99.90;;;;;;4207644;28;20206;-78
2022/05/23 03:54:49;;;;;;;4.93;2.50;;;11.80;99.90;;;;;;4206861;28;20771;-78
2022/05/23 03:56:51;;;;;;;6.57;3.00;;;11.80;99.90;;;;;;4200979;28;20205;-80
2022/05/23 03:58:52;;;;;;;6.43;2.97;;;11.80;99.90;;;;;;4199392;28;20215;-78
2022/05/23 04:01:04;;;;;;;5.17;2.50;;;11.80;99.90;;;;;;4211648;28;20202;-79
2022/05/23 04:03:06;;;;;;;5.57;2.67;;;11.80;99.90;;;;;;4204336;28;20234;-79
2022/05/23 04:05:10;;;;;;;5.63;2.60;;;11.80;99.90;;;;;;4206808;28;20244;-78
2022/05/23 04:07:13;;;;;;;7.67;2.83;;;11.80;99.90;;;;;;4205446;28;20660;-78
2022/05/23 04:09:16;;;;;;;4.27;2.50;;;11.80;99.90;;;;;;4213624;28;20210;-79
2022/05/23 04:11:18;;;;;;;7.73;2.73;;;11.90;99.90;;;;;;4201876;28;20649;-78
2022/05/23 04:13:20;;;;;;;9.60;2.73;;;11.90;99.90;;;;;;4213175;28;20206;-79
2022/05/23 04:15:24;;;;;;;6.87;2.67;;;11.90;99.90;;;;;;4213485;28;20782;-80
2022/05/23 04:17:26;;;;;;;7.60;3.03;;;12.00;99.90;;;;;;4215128;28;20574;-79
2022/05/23 04:19:28;;;;;;;6.87;2.70;;;12.00;99.90;;;;;;4205731;28;20701;-78
2022/05/23 04:21:29;;;;;;;8.33;2.97;;;12.00;99.90;;;;;;4207940;28;20211;-78
2022/05/23 04:23:31;;;;;;;7.43;3.23;;;12.10;99.90;;;;;;4208121;28;20207;-79
2022/05/23 04:25:35;;;;;;;12.27;3.40;;;12.10;99.90;;;;;;4208035;28;20231;-78
2022/05/23 04:27:37;;;;;;;6.07;2.80;;;12.20;99.90;;;;;;4204845;28;20210;-78
2022/05/23 04:29:39;;;;;;;4.30;2.87;;;12.20;99.90;;;;;;4203617;28;20199;-78
2022/05/23 04:31:41;;;;;;;8.20;2.77;;;12.30;99.90;;;;;;4205194;28;20214;-78
2022/05/23 04:36:02;;;;;;;9.03;2.80;;;12.40;99.90;;;;;;4207086;28;20235;-79
2022/05/23 04:38:03;;;;;;;8.00;2.93;;;12.40;99.90;;;;;;4206838;28;20723;-78
2022/05/23 04:40:07;;;;;;;7.53;2.83;;;12.40;99.90;;;;;;4197539;28;20223;-78
2022/05/23 04:42:10;;;;;;;7.43;2.50;;;12.40;99.90;;;;;;4207956;28;20317;-78
2022/05/23 04:44:12;;;;;;;5.07;2.50;;;12.40;99.90;;;;;;4198786;28;20245;-79
2022/05/23 04:46:14;;;;;;;4.43;2.80;;;12.40;99.90;;;;;;4206302;28;20732;-78
2022/05/23 04:50:36;;;;;;;7.10;2.47;;;12.60;99.90;;;;;;4202823;28;20192;-79
2022/05/23 04:52:38;;;;;;;5.10;2.80;;;12.50;99.90;;;;;;4212477;28;20231;-80
2022/05/23 04:54:40;;;;;;;4.57;2.60;;;12.60;99.90;;;;;;4212467;28;20214;-80
2022/05/23 04:56:42;;;;;;;5.43;2.80;;;12.70;99.90;;;;;;4208362;28;20215;-79
2022/05/23 04:58:45;;;;;;;9.23;3.00;;;12.70;99.90;;;;;;4210356;28;20205;-80
2022/05/23 05:00:47;;;;;;;6.47;2.60;;;12.70;99.90;;;;;;4203271;28;20742;-79
2022/05/23 05:02:50;;;;;;;5.63;2.80;;;12.70;99.90;;;;;;4210357;28;20207;-79
2022/05/23 05:04:51;;;;;;;11.27;4.50;;;12.80;99.90;;;;;;4216749;28;20293;-80
2022/05/23 05:06:53;;;;;;;6.43;3.60;;;12.80;99.90;;;;;;4210478;28;20292;-79
2022/05/23 05:08:55;;;;;;;5.07;2.97;;;12.90;99.90;;;;;;4212042;28;20282;-80
2022/05/23 05:10:58;;;;;;;5.00;2.63;;;13.00;99.90;;;;;;4217847;28;20246;-78
2022/05/23 05:12:59;;;;;;;5.40;2.70;;;13.10;99.90;;;;;;4207676;28;20206;-77
2022/05/23 05:15:03;;;;;;;7.63;2.90;;;13.20;99.90;;;;;;4211964;28;20225;-78
2022/05/23 05:17:05;;;;;;;8.13;2.50;;;13.20;99.90;;;;;;4208766;28;20667;-77
2022/05/23 05:19:07;;;;;;;6.87;2.80;;;13.30;99.90;;;;;;4202556;28;20201;-78
2022/05/23 05:21:11;;;;;;;3.90;2.50;;;13.30;99.90;;;;;;4200714;28;20216;-78
2022/05/23 05:23:13;;;;;;;8.20;2.70;;;13.40;99.90;;;;;;4200652;28;20201;-78
2022/05/23 05:25:16;;;;;;;4.57;2.67;;;13.50;99.90;;;;;;4206400;28;20227;-78
2022/05/23 05:27:18;;;;;;;8.00;2.87;;;13.50;99.90;;;;;;4204022;28;20209;-78
2022/05/23 05:29:20;;;;;;;6.47;2.73;;;13.50;99.90;;;;;;4203026;28;20344;-80
2022/05/23 05:31:26;;;;;;;5.20;2.50;;;13.60;99.90;;;;;;4207525;28;20209;-78
2022/05/23 05:33:32;;;;;;;5.87;2.60;;;13.70;99.90;;;;;;4202901;28;20244;-78
2022/05/23 05:35:38;;;;;;;9.43;3.47;;;13.70;99.90;;;;;;4199873;28;20265;-78
2022/05/23 05:37:45;;;;;;;9.17;2.77;;;13.80;99.90;;;;;;4208530;28;20733;-78
2022/05/23 05:39:48;;;;;;;10.00;4.00;;;13.80;99.90;;;;;;4204855;28;21851;-78
2022/05/23 05:41:55;;;;;;;6.53;3.43;;;13.90;99.90;;;;;;4202950;28;20215;-79
2022/05/23 05:44:00;;;;;;;8.13;2.90;;;14.00;99.90;;;;;;4199313;28;20251;-78
2022/05/23 05:46:06;;;;;;;6.07;2.33;;;14.00;99.90;;;;;;4200357;28;20252;-80
2022/05/23 05:48:10;;;;;;;4.63;2.30;;;14.10;99.90;;;;;;4206701;28;20275;-79
2022/05/23 05:50:15;;;;;;;5.53;2.77;;;14.20;99.90;;;;;;4205458;28;20601;-79
2022/05/23 05:52:19;;;;;;;6.63;2.57;;;14.20;99.90;;;;;;4207713;28;20219;-78
2022/05/23 05:54:25;;;;;;;6.67;2.60;;;14.30;99.90;;;;;;4200914;28;20217;-79
2022/05/23 05:56:28;;;;;;;5.33;2.53;;;14.40;99.90;;;;;;4203561;28;20209;-79
2022/05/23 05:58:31;;;;;;;6.67;2.33;;;14.50;99.90;;;;;;4206819;28;20202;-78
2022/05/23 06:00:33;;;;;;;8.73;2.30;;;14.50;99.90;;;;;;4205769;28;20291;-78
2022/05/23 06:02:37;;;;;;;7.67;2.53;;;14.60;99.90;;;;;;4202998;28;20693;-79
2022/05/23 06:04:41;;;;;;;5.17;2.20;;;14.70;99.90;;;;;;4203523;28;20229;-78
2022/05/23 06:11:26;;;;;;;4.47;2.27;;;14.80;99.90;;;;;;4207514;28;20201;-78
2022/05/23 06:13:29;;;;;;;3.63;2.00;;;14.90;99.90;;;;;;4198962;28;20295;-78
2022/05/23 06:15:30;;;;;;;4.60;2.07;;;15.00;99.90;;;;;;4207053;28;20241;-78
2022/05/23 06:17:39;;;;;;;8.90;2.40;;;15.00;99.90;;;;;;4199869;28;20743;-79
2022/05/23 06:19:45;;;;;;;4.77;2.10;;;15.10;99.90;;;;;;4201285;28;21968;-79
2022/05/23 06:21:47;;;;;;;4.90;1.97;;;15.20;99.90;;;;;;4206813;28;20922;-79
2022/05/23 06:23:48;;;;;;;6.13;2.07;;;15.20;99.90;;;;;;4205107;28;20674;-79
2022/05/23 06:25:50;;;;;;;3.93;2.20;;;15.30;99.90;;;;;;4198360;28;20235;-79
2022/05/23 06:27:52;;;;;;;6.87;2.20;;;15.40;99.90;;;;;;4198245;28;20587;-79
2022/05/23 06:29:54;;;;;;;5.67;2.20;;;15.40;99.90;;;;;;4206419;28;20232;-78
2022/05/23 06:31:55;;;;;;;7.27;2.30;;;15.50;99.90;;;;;;4197508;28;20222;-79
2022/05/23 06:33:57;;;;;;;6.87;3.00;;;15.60;99.90;;;;;;4192434;28;20671;-79
2022/05/23 06:36:01;;;;;;;9.07;3.87;;;15.70;99.90;;;;;;4201058;28;20868;-79
2022/05/23 06:38:02;;;;;;;6.57;3.00;;;15.70;99.90;;;;;;4209261;28;20198;-79
2022/05/23 06:40:06;;;;;;;7.13;2.70;;;15.80;99.30;;;;;;4207325;28;20329;-79
2022/05/23 06:42:08;;;;;;;7.03;2.57;;;15.90;99.40;;;;;;4226661;28;20223;-79
2022/05/23 06:44:10;;;;;;;6.87;2.53;;;16.00;98.50;;;;;;4209805;28;20233;-79
2022/05/23 06:46:13;;;;;;;4.27;2.30;;;16.00;97.40;;;;;;4203585;28;20258;-79
2022/05/23 06:48:16;;;;;;;5.47;2.23;;;16.10;97.30;;;;;;4208537;28;20224;-79
2022/05/23 06:50:18;;;;;;;10.03;2.33;;;16.20;97.40;;;;;;4209932;28;20713;-79
2022/05/23 06:52:21;;;;;;;5.63;2.23;;;16.20;97.00;;;;;;4207592;28;20338;-79
2022/05/23 06:54:24;;;;;;;6.37;2.37;;;16.30;96.40;;;;;;4203130;28;20210;-79
2022/05/23 06:56:27;;;;;;;5.33;2.07;;;16.30;96.60;;;;;;4202635;28;20207;-79
2022/05/23 06:58:29;;;;;;;6.90;2.37;;;16.40;96.30;;;;;;4194227;28;20212;-79
2022/05/23 07:00:31;;;;;;;4.67;1.97;;;16.50;96.10;;;;;;4198426;28;20204;-79
2022/05/23 07:02:33;;;;;;;7.70;2.13;;;16.80;95.50;;;;;;4199545;28;20277;-79
2022/05/23 07:13:53;;;;;;;8.07;2.63;;;17.00;94.40;;;;;;4206703;28;20224;-79
2022/05/23 07:15:58;;;;;;;7.17;2.83;;;17.10;93.50;;;;;;4197119;28;20744;-79
2022/05/23 07:18:00;;;;;;;7.13;2.67;;;17.20;92.90;;;;;;4202167;28;20507;-80
2022/05/23 07:20:02;;;;;;;6.83;2.63;;;17.30;93.20;;;;;;4198189;28;20217;-80
2022/05/23 07:22:04;;;;;;;8.40;2.93;;;17.40;92.80;;;;;;4202717;28;20212;-80
2022/05/23 07:24:07;;;;;;;6.40;2.50;;;17.40;92.20;;;;;;4193396;28;20230;-79
2022/05/23 07:26:15;;;;;;;3.60;2.00;;;17.40;91.10;;;;;;4198977;28;20730;-80
2022/05/23 07:28:17;;;;;;;7.90;2.10;;;17.60;90.60;;;;;;4193400;28;20232;-80
2022/05/23 07:30:21;;;;;;;5.33;2.13;;;17.60;90.80;;;;;;4207059;28;20250;-79
2022/05/23 07:32:22;;;;;;;6.87;2.20;;;17.80;90.10;;;;;;4207489;28;20292;-80
2022/05/23 07:34:27;;;;;;;6.47;2.20;;;17.90;89.20;;;;;;4208692;28;20640;-79
2022/05/23 07:36:29;;;;;;;3.67;2.00;;;17.90;87.40;;;;;;4207060;28;20240;-79
2022/05/23 07:38:31;;;;;;;5.77;1.90;;;18.00;86.40;;;;;;4209538;28;20209;-79
2022/05/23 07:40:33;;;;;;;6.27;2.13;;;18.00;85.40;;;;;;4203527;28;20217;-79
2022/05/23 07:42:36;;;;;;;4.77;2.23;;;18.20;84.80;;;;;;4208695;28;20210;-79
2022/05/23 07:44:39;;;;;;;6.00;1.80;;;18.30;83.50;;;;;;4204331;28;20225;-79
2022/05/23 07:46:43;;;;;;;4.97;2.07;;;18.40;82.10;;;;;;4204410;28;20217;-80
2022/05/23 07:48:47;;;;;;;3.43;1.43;;;18.50;80.80;;;;;;4203793;28;20229;-80
2022/05/23 07:50:50;;;;;;;4.90;2.00;;;18.60;79.30;;;;;;4202600;28;20688;-80
2022/05/23 08:02:18;;;;;;;7.63;2.00;;;18.80;75.20;;;;;;4209334;28;20209;-80
2022/05/23 08:04:20;;;;;;;4.67;1.60;;;18.80;74.00;;;;;;4206857;28;20238;-79
2022/05/23 08:06:22;;;;;;;4.27;1.53;;;18.90;73.30;;;;;;4206065;28;20222;-80
2022/05/23 08:08:26;;;;;;;6.70;1.80;;;18.90;73.60;;;;;;4208129;28;20211;-79
2022/05/23 08:10:27;;;;;;;6.87;1.70;;;19.00;73.10;;;;;;4210160;28;20277;-79
2022/05/23 08:12:30;;;;;;;6.13;1.90;;;19.10;73.60;;;;;;4208519;22;20243;-79
2022/05/23 08:14:33;;;;;;;7.07;2.43;;;19.10;74.10;;;;;;4176354;28;20215;-80
2022/05/23 08:16:36;;;;;;;5.33;2.10;;;19.00;73.50;;;;;;4162715;28;20618;-80
2022/05/23 08:18:38;;;;;;;5.03;1.83;;;19.30;73.60;;;;;;4185371;28;20582;-80
2022/05/23 08:20:40;;;;;;;3.07;1.57;;;19.30;73.10;;;;;;4182039;28;20290;-80
2022/05/23 08:22:42;;;;;;;6.30;2.13;;;19.40;72.40;;;;;;4187869;28;20231;-79
2022/05/23 08:24:44;;;;;;;3.70;1.70;;;19.50;71.40;;;;;;4177818;28;20238;-80
2022/05/23 08:26:46;;;;;;;6.77;2.10;;;19.50;71.30;;;;;;4181368;28;20747;-80
2022/05/23 08:28:49;;;;;;;3.63;1.90;;;19.60;71.20;;;;;;4179163;28;20330;-80
2022/05/23 08:30:53;;;;;;;4.63;1.87;;;19.60;71.70;;;;;;4174813;28;20205;-79
2022/05/23 08:32:55;;;;;;;5.27;1.97;;;19.70;71.30;;;;;;4166164;28;20232;-80
2022/05/23 08:34:57;;;;;;;6.13;1.93;;;19.70;70.50;;;;;;4181739;28;20254;-79
2022/05/23 08:36:59;;;;;;;5.90;2.10;;;19.80;70.90;;;;;;4161573;28;20217;-80
2022/05/23 08:39:02;;;;;;;3.27;1.70;;;19.80;71.60;;;;;;4179512;28;20222;-80
2022/05/23 08:41:17;;;;;;;6.43;1.90;;;19.90;71.70;;;;;;4177219;28;20233;-80
2022/05/23 08:43:29;;;;;;;5.57;1.83;;;19.90;68.50;;;;;;4188099;28;20715;-80
2022/05/23 08:45:35;;;;;;;5.27;1.63;;;20.00;67.70;;;;;;4176575;28;20674;-80
2022/05/23 08:47:50;;;;;;;6.00;2.07;;;20.10;66.60;;;;;;4178299;28;20965;-80
2022/05/23 08:50:03;;;;;;;4.97;1.60;;;20.10;65.80;;;;;;4181356;28;20268;-80
2022/05/23 08:52:12;;;;;;;6.47;1.50;;;20.10;65.00;;;;;;4175037;28;20530;-80
2022/05/23 08:54:23;;;;;;;5.57;1.77;;;20.20;65.00;;;;;;4177749;28;20204;-80
2022/05/23 08:56:30;;;;;;;5.13;1.87;;;20.20;65.60;;;;;;4160844;28;20210;-80
2022/05/23 08:58:35;;;;;;;5.97;1.90;;;20.30;65.20;;;;;;4174760;28;20240;-80
2022/05/23 09:00:41;;;;;;;8.37;2.20;;;20.40;65.10;;;;;;4182062;28;20206;-80
2022/05/23 09:02:52;;;;;;;4.10;1.90;;;20.50;63.50;;;;;;4180484;28;20754;-80
2022/05/23 09:04:58;;;;;;;5.93;1.70;;;20.70;62.70;;;;;;4177361;28;20242;-80
2022/05/23 09:07:05;;;;;;;4.73;1.97;;;20.70;62.20;;;;;;4176364;28;20213;-80
2022/05/23 09:09:10;;;;;;;5.10;1.87;;;20.80;61.20;;;;;;4177807;28;20613;-80
2022/05/23 09:11:20;;;;;;;5.43;1.60;;;20.90;60.90;;;;;;4177630;28;20295;-81
2022/05/23 09:13:23;;;;;;;5.23;1.53;;;21.10;59.90;;;;;;4155966;28;20245;-81
2022/05/23 09:15:25;;;;;;;4.80;2.00;;;21.20;60.00;;;;;;4176845;28;20683;-79
2022/05/23 09:17:32;;;;;;;4.43;1.80;;;21.20;58.60;;;;;;4176718;28;20217;-81
2022/05/23 09:19:40;;;;;;;5.40;1.70;;;21.30;57.30;;;;;;4187265;28;20214;-81
2022/05/23 09:24:05;;;;;;;6.47;1.63;;;21.50;57.10;;;;;;4171610;28;20673;-82
2022/05/23 09:26:16;;;;;;;3.47;1.80;;;21.60;56.60;;;;;;4178142;28;20213;-81
2022/05/23 09:28:23;;;;;;;6.03;1.57;;;21.70;56.90;;;;;;4184973;28;20237;-81
2022/05/23 09:30:27;;;;;;;8.20;1.90;;;21.90;56.40;;;;;;4183995;28;20680;-81
2022/05/23 09:32:36;;;;;;;4.90;2.03;;;21.80;55.50;;;;;;4179380;28;20588;-82
2022/05/23 09:34:47;;;;;;;5.37;2.30;;;21.90;55.30;;;;;;4170992;28;20313;-82
2022/05/23 09:36:49;;;;;;;5.07;2.07;;;22.00;55.10;;;;;;4169251;28;20210;-82
2022/05/23 09:38:56;;;;;;;6.30;1.90;;;22.00;55.30;;;;;;4172182;28;20210;-81
2022/05/23 09:40:59;;;;;;;3.13;1.73;;;22.00;55.50;;;;;;4177765;28;20778;-81
2022/05/23 09:47:57;;;;;;;3.30;1.70;;;22.10;55.00;;;;;;4188845;28;20235;-82
2022/05/23 09:50:02;;;;;;;3.27;1.80;;;22.10;55.20;;;;;;4196972;28;20233;-82
2022/05/23 09:52:17;;;;;;;6.03;1.50;;;22.10;55.10;;;;;;4175407;28;20215;-81
2022/05/23 09:54:23;;;;;;;7.13;2.03;;;22.20;55.30;;;;;;4179546;28;20248;-82
2022/05/23 09:56:31;;;;;;;3.43;1.87;;;22.20;54.80;;;;;;4162568;28;20747;-82
2022/05/23 09:58:35;;;;;;;5.13;1.97;;;22.30;54.40;;;;;;4179928;28;20215;-82
2022/05/23 10:00:39;;;;;;;4.73;1.57;;;22.40;53.90;;;;;;4165952;28;20204;-82
2022/05/23 10:02:48;;;;;;;5.43;1.80;;;22.50;54.30;;;;;;4178670;28;20833;-82
2022/05/23 10:04:50;;;;;;;5.43;1.70;;;22.60;53.30;;;;;;4164798;28;20647;-81
2022/05/23 10:06:53;;;;;;;4.07;1.70;;;22.60;52.70;;;;;;4178004;28;20271;-82
2022/05/23 10:08:55;;;;;;;8.80;2.00;;;22.70;52.50;;;;;;4181659;28;20969;-81
2022/05/23 10:10:59;;;;;;;4.87;2.03;;;22.70;52.50;;;;;;4163282;28;20238;-82
2022/05/23 10:13:23;;;;;;;7.30;2.80;;;22.80;51.70;;;;;;4180905;28;20764;-80
2022/05/23 10:15:28;;;;;;;5.13;1.83;;;22.80;51.70;;;;;;4175405;28;20668;-81
2022/05/23 10:17:31;;;;;;;12.07;1.80;;;22.90;52.00;;;;;;4163573;28;20310;-81
2022/05/23 10:19:35;;;;;;;4.33;1.80;;;23.00;52.20;;;;;;4177777;28;20215;-82
2022/05/23 10:21:40;;;;;;;12.53;1.70;;;23.00;52.40;;;;;;4179036;28;20237;-81
2022/05/23 10:24:00;;;;;;;5.90;1.97;;;23.20;51.70;;;;;;4167913;28;20629;-82
2022/05/23 10:26:07;;;;;;;3.47;1.23;;;23.30;51.20;;;;;;4185353;28;20209;-81
2022/05/23 10:28:13;;;;;;;4.20;1.60;;;23.50;50.80;;;;;;4186279;28;20209;-82
2022/05/23 10:30:19;;;;;;;4.00;1.80;;;23.60;50.30;;;;;;4186450;28;20218;-82
2022/05/23 10:32:29;;;;;;;4.97;2.07;;;23.70;49.00;;;;;;4187261;28;20234;-81
2022/05/23 10:34:39;;;;;;;6.10;1.30;;;23.80;48.50;;;;;;4191922;28;20219;-82
2022/05/23 10:36:43;;;;;;;4.30;1.50;;;23.90;47.80;;;;;;4194091;28;20249;-82
2022/05/23 10:43:41;;;;;;;6.53;1.90;;;24.30;45.30;;;;;;4191340;28;20726;-82
2022/05/23 10:45:47;;;;;;;4.67;1.50;;;24.50;45.90;;;;;;4174867;28;20221;-82
2022/05/23 10:48:10;;;;;;;5.43;1.60;;;24.60;45.10;;;;;;4174855;28;20230;-82
2022/05/23 10:50:20;;;;;;;7.10;1.77;;;24.80;44.50;;;;;;4152310;28;20277;-82
2022/05/23 10:52:33;;;;;;;3.70;1.40;;;25.00;44.20;;;;;;4180279;28;20222;-82
2022/05/23 10:54:47;;;;;;;5.57;1.60;;;25.10;43.70;;;;;;4165500;28;20211;-82
2022/05/23 10:56:58;;;;;;;4.60;1.70;;;25.20;42.90;;;;;;4165370;28;20233;-82
2022/05/23 10:59:07;;;;;;;5.17;1.60;;;25.30;42.80;;;;;;4179585;28;20284;-82
2022/05/23 11:01:22;;;;;;;2.87;1.50;;;25.40;42.90;;;;;;4188611;28;20524;-82
2022/05/23 11:03:35;;;;;;;7.20;1.67;;;25.60;42.40;;;;;;4189477;28;20245;-82
2022/05/23 11:05:42;;;;;;;4.63;1.60;;;25.70;41.70;;;;;;4191591;28;20206;-81
2022/05/23 11:07:52;;;;;;;7.00;1.70;;;25.80;41.60;;;;;;4182727;28;20325;-82
2022/05/23 11:10:02;;;;;;;3.87;1.20;;;25.90;41.00;;;;;;4185560;28;20273;-82
2022/05/23 11:12:16;;;;;;;6.37;1.70;;;26.00;40.40;;;;;;4178580;28;20682;-79
2022/05/23 11:14:26;;;;;;;4.00;1.33;;;26.10;39.90;;;;;;4167215;28;20249;-79
2022/05/23 11:16:34;;;;;;;5.80;1.40;;;26.20;40.00;;;;;;4160800;28;20217;-79
2022/05/23 11:19:00;;;;;;;3.77;1.50;;;26.30;39.90;;;;;;4163295;28;20236;-79
2022/05/23 11:21:07;;;;;;;4.63;1.53;;;26.50;40.00;;;;;;4181945;28;20199;-80
2022/05/23 11:23:15;;;;;;;2.93;1.63;;;26.70;39.80;;;;;;4166211;28;20611;-79
2022/05/23 11:25:29;;;;;;;5.23;1.27;;;26.90;39.60;;;;;;4177905;28;20213;-78
2022/05/23 11:34:52;;;;;;;12.67;1.57;;;27.80;37.90;;;;;;4176040;28;20219;-82
2022/05/23 11:37:01;;;;;;;5.67;1.50;;;27.90;37.20;;;;;;4172600;28;20253;-82
2022/05/23 11:39:05;;;;;;;2.70;1.20;;;28.00;36.70;;;;;;4158228;28;20243;-82
2022/05/23 11:41:11;;;;;;;2.80;1.30;;;28.10;36.60;;;;;;4166774;28;20286;-82
2022/05/23 11:43:18;;;;;;;5.53;1.60;;;28.30;36.40;;;;;;4183772;28;20268;-82
2022/05/23 11:47:51;;;;;;;4.50;1.50;;;29.00;36.10;;;;;;4175891;28;20725;-81
2022/05/23 11:50:09;;;;;;;7.00;1.50;;;29.30;35.20;;;;;;4188054;28;20679;-82
2022/05/23 11:52:24;;;;;;;2.83;1.30;;;29.70;35.10;;;;;;4165422;28;20246;-81
2022/05/23 11:54:42;;;;;;;3.10;1.57;;;30.20;35.00;;;;;;4169331;28;20247;-82
2022/05/23 11:57:15;;;;;;;2.63;1.55;;;30.80;34.10;;;;;;4187829;28;20201;-81
2022/05/23 12:00:05;;;;;;;3.97;1.63;;;31.60;33.30;;;;;;4180562;28;20680;-83
2022/05/23 12:02:21;;;;;;;3.47;1.50;;;32.60;31.60;;;;;;4101716;29;20300;-82
2022/05/23 12:04:22;;;;;;;4.55;1.80;;;33.50;30.00;;;;;;4142982;28;20217;-79
2022/05/23 12:06:37;;;;;;;3.40;1.83;;;34.20;29.20;;;;;;4184258;28;20245;-79
2022/05/23 12:08:40;;;;;;;6.60;1.75;;;34.80;28.60;;;;;;4186643;28;20225;-82
2022/05/23 12:10:59;;;;;;;3.75;1.70;;;35.30;28.20;;;;;;4153567;28;20295;-82
2022/05/23 12:13:36;;;;;;;4.72;1.35;;;35.70;27.80;;;;;;4156255;28;20579;-82
2022/05/23 12:15:53;;;;;;;8.93;1.30;;;35.80;27.40;;;;;;4190887;28;20217;-82
2022/05/23 12:17:58;;;;;;;6.60;1.52;;;35.70;27.40;;;;;;4168111;28;20207;-82
2022/05/23 12:20:05;;;;;;;6.30;1.50;;;35.70;27.30;;;;;;4188927;28;20269;-83
2022/05/23 12:22:21;;;;;;;5.10;1.35;;;35.60;27.20;;;;;;4190270;28;20305;-79
2022/05/23 12:24:29;;;;;;;3.30;1.52;;;35.10;27.20;;;;;;4160125;28;20688;-79
2022/05/23 12:26:34;;;;;;;3.00;1.40;;;34.70;27.70;;;;;;4173443;28;20230;-80
2022/05/23 12:28:44;;;;;;;3.55;1.50;;;34.20;28.20;;;;;;4167070;28;20302;-79
2022/05/23 12:31:08;;;;;;;3.78;1.65;;;33.70;28.60;;;;;;4185386;28;20226;-79
2022/05/23 12:33:14;;;;;;;5.05;1.77;;;33.30;28.90;;;;;;4186119;28;20230;-81
2022/05/23 12:35:18;;;;;;;4.13;1.52;;;32.90;29.30;;;;;;4178282;28;20239;-82
2022/05/23 12:37:27;;;;;;;4.88;1.60;;;32.70;29.30;;;;;;4183261;28;20660;-82
2022/05/23 12:39:49;;;;;;;4.72;1.45;;;32.50;29.60;;;;;;4183370;28;20577;-82
2022/05/23 12:41:59;;;;;;;7.05;1.63;;;32.20;29.50;;;;;;4161012;28;20267;-81
2022/05/23 12:44:44;;;;;;;4.55;1.80;;;32.10;29.80;;;;;;4192890;28;20291;-82
2022/05/23 12:46:57;;;;;;;3.75;1.38;;;31.80;30.00;;;;;;4185968;28;20214;-81
2022/05/23 12:49:33;;;;;;;3.08;1.30;;;31.60;29.80;;;;;;4183150;28;20208;-82
2022/05/23 12:51:46;;;;;;;5.90;1.50;;;31.30;29.60;;;;;;4178926;28;20260;-83
2022/05/23 12:54:15;;;;;;;6.55;1.40;;;31.10;30.00;;;;;;4192988;28;20222;-81
2022/05/23 12:56:36;;;;;;;3.30;1.30;;;30.70;30.00;;;;;;4184362;28;20202;-81
2022/05/23 12:59:05;;;;;;;6.07;1.42;;;30.40;30.50;;;;;;4178178;28;20208;-82
2022/05/23 13:01:12;;;;;;;6.95;1.50;;;30.00;30.70;;;;;;4161982;28;20654;-81